sensor_id;sensor_type;location;lat;lon;timestamp;pressure;altitude;pressure_sealevel;temperature;humidity
6938;BME280;40040;42.706;23.372;2023-08-06T00:00:30;149169.94;;;20.27;100.00
6938;BME280;40040;42.706;23.372;2023-08-06T00:02:57;149162.50;;;20.24;100.00
6938;BME280;40040;42.706;23.372;2023-08-06T00:05:25;149261.91;;;20.64;100.00
6938;BME280;40040;42.706;23.372;2023-08-06T00:07:52;149222.13;;;20.48;100.00
6938;BME280;40040;42.706;23.372;2023-08-06T00:10:19;149271.81;;;20.68;100.00
6938;BME280;40040;42.706;23.372;2023-08-06T00:12:46;149259.41;;;20.63;100.00
6938;BME280;40040;42.706;23.372;2023-08-06T00:15:14;149275.59;;;20.69;100.00
6938;BME280;40040;42.706;23.372;2023-08-06T00:17:41;149271.81;;;20.68;100.00
6938;BME280;40040;42.706;23.372;2023-08-06T00:20:08;149280.53;;;20.71;100.00
6938;BME280;40040;42.706;23.372;2023-08-06T00:22:37;149286.78;;;20.74;100.00
6938;BME280;40040;42.706;23.372;2023-08-06T00:25:05;149178.66;;;20.30;100.00
6938;BME280;40040;42.706;23.372;2023-08-06T00:27:32;149189.81;;;20.35;100.00
6938;BME280;40040;42.706;23.372;2023-08-06T00:29:59;149191.06;;;20.35;100.00
6938;BME280;40040;42.706;23.372;2023-08-06T00:32:26;149132.63;;;20.11;100.00
6938;BME280;40040;42.706;23.372;2023-08-06T00:34:53;149173.66;;;20.28;100.00
6938;BME280;40040;42.706;23.372;2023-08-06T00:37:19;149171.19;;;20.27;100.00
6938;BME280;40040;42.706;23.372;2023-08-06T00:39:48;149174.91;;;20.29;100.00
6938;BME280;40040;42.706;23.372;2023-08-06T00:42:14;149171.19;;;20.27;100.00
6938;BME280;40040;42.706;23.372;2023-08-06T00:44:42;149164.97;;;20.25;100.00
6938;BME280;40040;42.706;23.372;2023-08-06T00:47:09;149099.06;;;19.98;100.00
6938;BME280;40040;42.706;23.372;2023-08-06T00:49:36;149060.53;;;19.82;100.00
6938;BME280;40040;42.706;23.372;2023-08-06T00:52:05;149135.09;;;20.12;100.00
6938;BME280;40040;42.706;23.372;2023-08-06T00:54:34;149131.38;;;20.11;100.00
6938;BME280;40040;42.706;23.372;2023-08-06T00:57:04;149171.19;;;20.27;100.00
6938;BME280;40040;42.706;23.372;2023-08-06T00:59:31;149192.31;;;20.36;100.00
6938;BME280;40040;42.706;23.372;2023-08-06T01:01:58;149174.91;;;20.29;100.00
6938;BME280;40040;42.706;23.372;2023-08-06T01:04:25;149164.97;;;20.25;100.00
6938;BME280;40040;42.706;23.372;2023-08-06T01:07:01;149184.88;;;20.33;100.00
6938;BME280;40040;42.706;23.372;2023-08-06T01:09:35;149217.16;;;20.46;100.00
6938;BME280;40040;42.706;23.372;2023-08-06T01:12:19;149198.50;;;20.38;100.00
6938;BME280;40040;42.706;23.372;2023-08-06T01:14:52;149210.97;;;20.43;100.00
6938;BME280;40040;42.706;23.372;2023-08-06T01:17:20;149116.44;;;20.05;100.00
6938;BME280;40040;42.706;23.372;2023-08-06T01:19:47;149197.28;;;20.38;100.00
6938;BME280;40040;42.706;23.372;2023-08-06T01:22:15;149229.59;;;20.51;100.00
6938;BME280;40040;42.706;23.372;2023-08-06T01:24:44;149184.88;;;20.33;100.00
6938;BME280;40040;42.706;23.372;2023-08-06T01:27:17;149269.38;;;20.67;100.00
6938;BME280;40040;42.706;23.372;2023-08-06T01:29:50;149271.81;;;20.68;100.00
6938;BME280;40040;42.706;23.372;2023-08-06T01:32:24;149264.38;;;20.65;100.00
6938;BME280;40040;42.706;23.372;2023-08-06T01:34:52;149137.63;;;20.13;100.00
6938;BME280;40040;42.706;23.372;2023-08-06T01:37:22;149249.50;;;20.59;100.00
6938;BME280;40040;42.706;23.372;2023-08-06T01:39:49;149270.63;;;20.67;100.00
6938;BME280;40040;42.706;23.372;2023-08-06T01:42:16;149281.78;;;20.72;100.00
6938;BME280;40040;42.706;23.372;2023-08-06T01:44:43;149202.28;;;20.40;100.00
6938;BME280;40040;42.706;23.372;2023-08-06T01:47:10;149305.44;;;20.81;100.00
6938;BME280;40040;42.706;23.372;2023-08-06T01:49:37;149317.84;;;20.86;100.00
6938;BME280;40040;42.706;23.372;2023-08-06T01:52:04;149317.84;;;20.86;100.00
6938;BME280;40040;42.706;23.372;2023-08-06T01:54:32;149261.91;;;20.64;100.00
6938;BME280;40040;42.706;23.372;2023-08-06T01:56:59;149248.25;;;20.58;100.00
6938;BME280;40040;42.706;23.372;2023-08-06T01:59:26;149238.28;;;20.54;100.00
6938;BME280;40040;42.706;23.372;2023-08-06T02:01:53;149230.84;;;20.51;100.00
6938;BME280;40040;42.706;23.372;2023-08-06T02:04:19;149215.91;;;20.45;100.00
6938;BME280;40040;42.706;23.372;2023-08-06T02:06:46;149223.41;;;20.48;100.00
6938;BME280;40040;42.706;23.372;2023-08-06T02:09:13;149237.06;;;20.54;100.00
6938;BME280;40040;42.706;23.372;2023-08-06T02:11:41;149242.00;;;20.56;100.00
6938;BME280;40040;42.706;23.372;2023-08-06T02:14:08;149259.41;;;20.63;100.00
6938;BME280;40040;42.706;23.372;2023-08-06T02:16:35;149271.81;;;20.68;100.00
6938;BME280;40040;42.706;23.372;2023-08-06T02:19:02;149278.06;;;20.70;100.00
6938;BME280;40040;42.706;23.372;2023-08-06T02:21:29;149251.97;;;20.60;100.00
6938;BME280;40040;42.706;23.372;2023-08-06T02:23:56;149247.00;;;20.58;100.00
6938;BME280;40040;42.706;23.372;2023-08-06T02:26:23;149232.09;;;20.52;100.00
6938;BME280;40040;42.706;23.372;2023-08-06T02:28:51;149233.31;;;20.52;100.00
6938;BME280;40040;42.706;23.372;2023-08-06T02:31:18;149239.53;;;20.55;100.00
6938;BME280;40040;42.706;23.372;2023-08-06T02:33:45;149227.13;;;20.50;100.00
6938;BME280;40040;42.706;23.372;2023-08-06T02:36:11;149188.59;;;20.34;100.00
6938;BME280;40040;42.706;23.372;2023-08-06T02:38:38;149251.97;;;20.60;100.00
6938;BME280;40040;42.706;23.372;2023-08-06T02:41:05;149250.72;;;20.59;100.00
6938;BME280;40040;42.706;23.372;2023-08-06T02:43:32;149248.25;;;20.58;100.00
6938;BME280;40040;42.706;23.372;2023-08-06T02:46:00;149244.53;;;20.57;100.00
6938;BME280;40040;42.706;23.372;2023-08-06T02:48:27;149207.22;;;20.42;100.00
6938;BME280;40040;42.706;23.372;2023-08-06T02:50:57;149186.09;;;20.33;100.00
6938;BME280;40040;42.706;23.372;2023-08-06T02:53:25;149214.69;;;20.45;100.00
6938;BME280;40040;42.706;23.372;2023-08-06T02:55:52;149224.59;;;20.49;100.00
6938;BME280;40040;42.706;23.372;2023-08-06T02:58:18;149222.13;;;20.48;100.00
6938;BME280;40040;42.706;23.372;2023-08-06T03:01:00;149217.16;;;20.46;100.00
6938;BME280;40040;42.706;23.372;2023-08-06T03:03:28;149199.75;;;20.39;100.00
6938;BME280;40040;42.706;23.372;2023-08-06T03:05:55;149152.53;;;20.20;100.00
6938;BME280;40040;42.706;23.372;2023-08-06T03:08:22;149199.75;;;20.39;100.00
6938;BME280;40040;42.706;23.372;2023-08-06T03:10:49;149151.28;;;20.19;100.00
6938;BME280;40040;42.706;23.372;2023-08-06T03:13:16;149203.47;;;20.40;100.00
6938;BME280;40040;42.706;23.372;2023-08-06T03:15:44;149136.34;;;20.13;100.00
6938;BME280;40040;42.706;23.372;2023-08-06T03:18:19;149125.16;;;20.08;100.00
6938;BME280;40040;42.706;23.372;2023-08-06T03:20:46;149092.88;;;19.95;100.00
6938;BME280;40040;42.706;23.372;2023-08-06T03:23:12;149040.69;;;19.74;100.00
6938;BME280;40040;42.706;23.372;2023-08-06T03:25:39;149097.84;;;19.97;100.00
6938;BME280;40040;42.706;23.372;2023-08-06T03:28:06;149085.44;;;19.92;100.00
6938;BME280;40040;42.706;23.372;2023-08-06T03:30:33;149096.59;;;19.97;100.00
6938;BME280;40040;42.706;23.372;2023-08-06T03:33:00;149035.72;;;19.72;100.00
6938;BME280;40040;42.706;23.372;2023-08-06T03:35:28;149018.31;;;19.65;100.00
6938;BME280;40040;42.706;23.372;2023-08-06T03:37:55;148971.13;;;19.46;100.00
6938;BME280;40040;42.706;23.372;2023-08-06T03:40:22;148948.75;;;19.37;100.00
6938;BME280;40040;42.706;23.372;2023-08-06T03:42:49;148936.34;;;19.32;100.00
6938;BME280;40040;42.706;23.372;2023-08-06T03:45:16;148913.94;;;19.23;100.00
6938;BME280;40040;42.706;23.372;2023-08-06T03:47:42;148951.28;;;19.38;100.00
6938;BME280;40040;42.706;23.372;2023-08-06T03:50:09;149018.31;;;19.65;100.00
6938;BME280;40040;42.706;23.372;2023-08-06T03:52:37;149030.75;;;19.70;100.00
6938;BME280;40040;42.706;23.372;2023-08-06T03:55:04;149035.72;;;19.72;100.00
6938;BME280;40040;42.706;23.372;2023-08-06T03:57:31;149030.75;;;19.70;100.00
6938;BME280;40040;42.706;23.372;2023-08-06T03:59:59;149005.91;;;19.60;100.00
6938;BME280;40040;42.706;23.372;2023-08-06T04:02:27;148951.28;;;19.38;100.00
6938;BME280;40040;42.706;23.372;2023-08-06T04:04:54;149010.88;;;19.62;100.00
6938;BME280;40040;42.706;23.372;2023-08-06T04:07:20;148976.09;;;19.48;100.00
6938;BME280;40040;42.706;23.372;2023-08-06T04:09:57;149030.75;;;19.70;100.00
6938;BME280;40040;42.706;23.372;2023-08-06T04:12:24;149025.75;;;19.68;100.00
6938;BME280;40040;42.706;23.372;2023-08-06T04:14:52;148966.16;;;19.44;100.00
6938;BME280;40040;42.706;23.372;2023-08-06T04:17:19;149020.84;;;19.66;100.00
6938;BME280;40040;42.706;23.372;2023-08-06T04:19:47;149029.53;;;19.70;100.00
6938;BME280;40040;42.706;23.372;2023-08-06T04:22:14;149018.31;;;19.65;100.00
6938;BME280;40040;42.706;23.372;2023-08-06T04:24:41;149008.41;;;19.61;100.00
6938;BME280;40040;42.706;23.372;2023-08-06T04:27:09;149017.13;;;19.65;100.00
6938;BME280;40040;42.706;23.372;2023-08-06T04:29:36;149054.34;;;19.80;100.00
6938;BME280;40040;42.706;23.372;2023-08-06T04:32:05;149073.00;;;19.87;100.00
6938;BME280;40040;42.706;23.372;2023-08-06T04:34:32;149117.69;;;20.05;100.00
6938;BME280;40040;42.706;23.372;2023-08-06T04:36:59;149137.63;;;20.13;100.00
6938;BME280;40040;42.706;23.372;2023-08-06T04:39:26;149142.53;;;20.15;100.00
6938;BME280;40040;42.706;23.372;2023-08-06T04:41:54;149090.41;;;19.94;100.00
6938;BME280;40040;42.706;23.372;2023-08-06T04:44:23;149126.41;;;20.09;100.00
6938;BME280;40040;42.706;23.372;2023-08-06T04:46:49;149189.81;;;20.35;100.00
6938;BME280;40040;42.706;23.372;2023-08-06T04:49:17;149214.69;;;20.45;100.00
6938;BME280;40040;42.706;23.372;2023-08-06T04:51:44;149237.06;;;20.54;100.00
6938;BME280;40040;42.706;23.372;2023-08-06T04:54:10;149206.00;;;20.41;100.00
6938;BME280;40040;42.706;23.372;2023-08-06T04:56:37;149253.22;;;20.60;100.00
6938;BME280;40040;42.706;23.372;2023-08-06T04:59:04;149212.19;;;20.44;100.00
6938;BME280;40040;42.706;23.372;2023-08-06T05:01:32;149274.34;;;20.69;100.00
6938;BME280;40040;42.706;23.372;2023-08-06T05:03:59;149284.31;;;20.73;100.00
6938;BME280;40040;42.706;23.372;2023-08-06T05:06:26;149285.50;;;20.73;100.00
6938;BME280;40040;42.706;23.372;2023-08-06T05:08:53;149234.56;;;20.53;100.00
6938;BME280;40040;42.706;23.372;2023-08-06T05:11:20;149312.88;;;20.84;100.00
6938;BME280;40040;42.706;23.372;2023-08-06T05:13:47;149336.47;;;20.94;100.00
6938;BME280;40040;42.706;23.372;2023-08-06T05:16:14;149357.69;;;21.02;100.00
6938;BME280;40040;42.706;23.372;2023-08-06T05:18:42;149372.59;;;21.08;100.00
6938;BME280;40040;42.706;23.372;2023-08-06T05:21:09;149336.47;;;20.94;100.00
6938;BME280;40040;42.706;23.372;2023-08-06T05:23:36;149398.69;;;21.19;100.00
6938;BME280;40040;42.706;23.372;2023-08-06T05:26:03;149406.16;;;21.22;100.00
6938;BME280;40040;42.706;23.372;2023-08-06T05:28:29;149416.13;;;21.26;100.00
6938;BME280;40040;42.706;23.372;2023-08-06T05:30:56;149432.25;;;21.33;100.00
6938;BME280;40040;42.706;23.372;2023-08-06T05:33:23;149401.16;;;21.20;100.00
6938;BME280;40040;42.706;23.372;2023-08-06T05:35:51;149442.22;;;21.37;100.00
6938;BME280;40040;42.706;23.372;2023-08-06T05:38:18;149442.22;;;21.37;100.00
6938;BME280;40040;42.706;23.372;2023-08-06T05:40:45;149386.28;;;21.14;100.00
6938;BME280;40040;42.706;23.372;2023-08-06T05:43:12;149448.47;;;21.39;100.00
6938;BME280;40040;42.706;23.372;2023-08-06T05:45:38;149465.88;;;21.46;100.00
6938;BME280;40040;42.706;23.372;2023-08-06T05:48:05;149457.16;;;21.43;100.00
6938;BME280;40040;42.706;23.372;2023-08-06T05:50:32;149540.47;;;21.76;100.00
6938;BME280;40040;42.706;23.372;2023-08-06T05:53:00;149580.31;;;21.92;100.00
6938;BME280;40040;42.706;23.372;2023-08-06T05:55:27;149551.75;;;21.81;100.00
6938;BME280;40040;42.706;23.372;2023-08-06T05:57:54;149688.56;;;22.36;100.00
6938;BME280;40040;42.706;23.372;2023-08-06T06:00:21;149657.47;;;22.23;100.00
6938;BME280;40040;42.706;23.372;2023-08-06T06:02:48;149727.16;;;22.52;100.00
6938;BME280;40040;42.706;23.372;2023-08-06T06:05:15;149699.75;;;22.41;100.00
6938;BME280;40040;42.706;23.372;2023-08-06T06:07:42;149772.03;;;22.70;100.00
6938;BME280;40040;42.706;23.372;2023-08-06T06:10:10;149744.63;;;22.59;100.00
6938;BME280;40040;42.706;23.372;2023-08-06T06:12:38;149834.22;;;22.95;100.00
6938;BME280;40040;42.706;23.372;2023-08-06T06:15:05;149865.34;;;23.07;100.00
6938;BME280;40040;42.706;23.372;2023-08-06T06:17:32;149829.25;;;22.93;100.00
6938;BME280;40040;42.706;23.372;2023-08-06T06:19:59;149918.97;;;23.29;100.00
6938;BME280;40040;42.706;23.372;2023-08-06T06:22:26;149906.47;;;23.24;100.00
6938;BME280;40040;42.706;23.372;2023-08-06T06:24:54;149936.41;;;23.36;100.00
6938;BME280;40040;42.706;23.372;2023-08-06T06:27:22;149882.78;;;23.14;100.00
6938;BME280;40040;42.706;23.372;2023-08-06T06:29:48;149881.53;;;23.14;100.00
6938;BME280;40040;42.706;23.372;2023-08-06T06:32:15;149824.31;;;22.91;100.00
6938;BME280;40040;42.706;23.372;2023-08-06T06:34:42;149790.66;;;22.77;100.00
6938;BME280;40040;42.706;23.372;2023-08-06T06:37:09;149821.78;;;22.90;100.00
6938;BME280;40040;42.706;23.372;2023-08-06T06:39:36;149821.78;;;22.90;100.00
6938;BME280;40040;42.706;23.372;2023-08-06T06:42:03;149879.06;;;23.13;100.00
6938;BME280;40040;42.706;23.372;2023-08-06T06:44:32;149932.63;;;23.34;100.00
6938;BME280;40040;42.706;23.372;2023-08-06T06:46:58;149983.72;;;23.55;100.00
6938;BME280;40040;42.706;23.372;2023-08-06T06:49:25;149996.16;;;23.60;100.00
6938;BME280;40040;42.706;23.372;2023-08-06T06:51:52;150037.25;;;23.77;100.00
6938;BME280;40040;42.706;23.372;2023-08-06T06:54:19;150058.41;;;23.85;100.00
6938;BME280;40040;42.706;23.372;2023-08-06T06:56:46;150087.09;;;23.97;100.00
6938;BME280;40040;42.706;23.372;2023-08-06T06:59:12;150135.72;;;24.16;100.00
6938;BME280;40040;42.706;23.372;2023-08-06T07:01:40;150160.63;;;24.26;100.00
6938;BME280;40040;42.706;23.372;2023-08-06T07:04:08;150190.53;;;24.38;100.00
6938;BME280;40040;42.706;23.372;2023-08-06T07:06:34;150203.00;;;24.43;100.00
6938;BME280;40040;42.706;23.372;2023-08-06T07:09:01;150146.91;;;24.21;100.00
6938;BME280;40040;42.706;23.372;2023-08-06T07:11:28;150272.81;;;24.72;100.00
6938;BME280;40040;42.706;23.372;2023-08-06T07:13:56;150333.91;;;24.96;100.00
6938;BME280;40040;42.706;23.372;2023-08-06T07:16:23;150386.25;;;25.17;100.00
6938;BME280;40040;42.706;23.372;2023-08-06T07:18:53;150398.72;;;25.22;100.00
6938;BME280;40040;42.706;23.372;2023-08-06T07:21:20;150416.19;;;25.29;100.00
6938;BME280;40040;42.706;23.372;2023-08-06T07:23:47;150376.28;;;25.13;100.00
6938;BME280;40040;42.706;23.372;2023-08-06T07:26:14;150439.91;;;25.39;100.00
6938;BME280;40040;42.706;23.372;2023-08-06T07:28:41;150407.44;;;25.26;100.00
6938;BME280;40040;42.706;23.372;2023-08-06T07:31:08;150497.25;;;25.62;100.00
6938;BME280;40040;42.706;23.372;2023-08-06T07:33:35;150529.66;;;25.75;100.00
6938;BME280;40040;42.706;23.372;2023-08-06T07:36:09;150613.28;;;26.09;100.00
6938;BME280;40040;42.706;23.372;2023-08-06T07:38:36;150668.19;;;26.31;100.00
6938;BME280;40040;42.706;23.372;2023-08-06T07:41:03;150602.06;;;26.04;100.00
6938;BME280;40040;42.706;23.372;2023-08-06T07:43:30;150709.34;;;26.47;100.00
6938;BME280;40040;42.706;23.372;2023-08-06T07:45:58;150770.53;;;26.72;100.00
6938;BME280;40040;42.706;23.372;2023-08-06T07:48:26;150867.88;;;27.11;100.00
6938;BME280;40040;42.706;23.372;2023-08-06T07:50:53;150930.34;;;27.36;95.44
6938;BME280;40040;42.706;23.372;2023-08-06T07:53:21;150951.56;;;27.45;90.87
6938;BME280;40040;42.706;23.372;2023-08-06T07:55:50;151012.75;;;27.69;89.40
6938;BME280;40040;42.706;23.372;2023-08-06T07:58:17;151041.44;;;27.81;87.23
6938;BME280;40040;42.706;23.372;2023-08-06T08:00:44;151023.97;;;27.74;86.28
6938;BME280;40040;42.706;23.372;2023-08-06T08:03:11;151050.19;;;27.85;87.21
6938;BME280;40040;42.706;23.372;2023-08-06T08:05:38;151006.47;;;27.67;85.71
6938;BME280;40040;42.706;23.372;2023-08-06T08:08:05;151051.44;;;27.85;83.12
6938;BME280;40040;42.706;23.372;2023-08-06T08:10:34;151168.91;;;28.32;83.00
6938;BME280;40040;42.706;23.372;2023-08-06T08:13:01;151193.84;;;28.42;82.52
6938;BME280;40040;42.706;23.372;2023-08-06T08:15:30;151201.34;;;28.45;82.21
6938;BME280;40040;42.706;23.372;2023-08-06T08:17:57;151256.38;;;28.67;78.28
6938;BME280;40040;42.706;23.372;2023-08-06T08:20:24;151280.09;;;28.77;76.78
6938;BME280;40040;42.706;23.372;2023-08-06T08:22:53;151256.38;;;28.67;75.47
6938;BME280;40040;42.706;23.372;2023-08-06T08:25:19;151311.34;;;28.90;76.34
6938;BME280;40040;42.706;23.372;2023-08-06T08:27:48;151326.38;;;28.96;73.79
6938;BME280;40040;42.706;23.372;2023-08-06T08:30:14;151358.84;;;29.09;72.69
6938;BME280;40040;42.706;23.372;2023-08-06T08:32:41;151357.56;;;29.08;72.54
6938;BME280;40040;42.706;23.372;2023-08-06T08:35:08;151351.34;;;29.06;73.31
6938;BME280;40040;42.706;23.372;2023-08-06T08:37:38;151491.38;;;29.62;70.82
6938;BME280;40040;42.706;23.372;2023-08-06T08:40:06;151368.91;;;29.13;71.31
6938;BME280;40040;42.706;23.372;2023-08-06T08:42:33;151341.34;;;29.02;72.41
6938;BME280;40040;42.706;23.372;2023-08-06T08:45:02;151347.59;;;29.04;71.73
6938;BME280;40040;42.706;23.372;2023-08-06T08:47:29;151463.88;;;29.51;71.34
6938;BME280;40040;42.706;23.372;2023-08-06T08:49:57;151481.38;;;29.58;69.40
6938;BME280;40040;42.706;23.372;2023-08-06T08:52:25;151501.34;;;29.66;70.14
6938;BME280;40040;42.706;23.372;2023-08-06T08:54:56;151510.16;;;29.69;68.45
6938;BME280;40040;42.706;23.372;2023-08-06T08:57:23;151578.91;;;29.97;69.94
6938;BME280;40040;42.706;23.372;2023-08-06T08:59:50;151603.94;;;30.07;67.38
6938;BME280;40040;42.706;23.372;2023-08-06T09:02:21;151664.00;;;30.31;67.23
6938;BME280;40040;42.706;23.372;2023-08-06T09:04:48;151665.28;;;30.32;65.79
6938;BME280;40040;42.706;23.372;2023-08-06T09:07:18;151764.06;;;30.71;66.91
6938;BME280;40040;42.706;23.372;2023-08-06T09:09:49;151864.19;;;31.12;65.38
6938;BME280;40040;42.706;23.372;2023-08-06T09:12:16;151901.72;;;31.27;63.93
6938;BME280;40040;42.706;23.372;2023-08-06T09:14:43;151874.22;;;31.16;63.32
6938;BME280;40040;42.706;23.372;2023-08-06T09:17:10;151921.81;;;31.35;62.20
6938;BME280;40040;42.706;23.372;2023-08-06T09:19:41;151876.69;;;31.17;63.85
6938;BME280;40040;42.706;23.372;2023-08-06T09:22:11;151811.66;;;30.90;64.05
6938;BME280;40040;42.706;23.372;2023-08-06T09:24:39;151780.31;;;30.78;65.81
6938;BME280;40040;42.706;23.372;2023-08-06T09:27:11;151831.66;;;30.99;62.85
6938;BME280;40040;42.706;23.372;2023-08-06T09:29:40;151784.09;;;30.79;62.42
6938;BME280;40040;42.706;23.372;2023-08-06T09:32:07;151894.22;;;31.24;63.22
6938;BME280;40040;42.706;23.372;2023-08-06T09:34:34;152011.91;;;31.71;59.55
6938;BME280;40040;42.706;23.372;2023-08-06T09:37:03;152108.34;;;32.10;59.89
6938;BME280;40040;42.706;23.372;2023-08-06T09:39:30;152172.16;;;32.35;58.23
6938;BME280;40040;42.706;23.372;2023-08-06T09:41:58;152247.34;;;32.65;57.17
6938;BME280;40040;42.706;23.372;2023-08-06T09:44:26;152261.09;;;32.71;56.16
6938;BME280;40040;42.706;23.372;2023-08-06T09:46:55;152194.75;;;32.44;56.58
6938;BME280;40040;42.706;23.372;2023-08-06T09:49:25;152262.34;;;32.71;55.80
6938;BME280;40040;42.706;23.372;2023-08-06T09:51:53;152272.38;;;32.75;54.89
6938;BME280;40040;42.706;23.372;2023-08-06T09:54:23;152279.88;;;32.78;53.68
6938;BME280;40040;42.706;23.372;2023-08-06T09:56:52;152269.84;;;32.74;52.98
6938;BME280;40040;42.706;23.372;2023-08-06T09:59:20;152376.38;;;33.17;52.90
6938;BME280;40040;42.706;23.372;2023-08-06T10:01:46;152474.16;;;33.56;51.38
6938;BME280;40040;42.706;23.372;2023-08-06T10:04:14;152431.47;;;33.39;49.59
6938;BME280;40040;42.706;23.372;2023-08-06T10:06:47;152345.06;;;33.04;50.68
6938;BME280;40040;42.706;23.372;2023-08-06T10:09:14;152297.41;;;32.85;51.18
6938;BME280;40040;42.706;23.372;2023-08-06T10:11:42;152192.22;;;32.43;52.11
6938;BME280;40040;42.706;23.372;2023-08-06T10:14:15;152038.19;;;31.81;51.93
6938;BME280;40040;42.706;23.372;2023-08-06T10:16:43;151995.63;;;31.64;52.40
6938;BME280;40040;42.706;23.372;2023-08-06T10:19:12;151859.19;;;31.10;53.32
6938;BME280;40040;42.706;23.372;2023-08-06T10:21:39;151724.03;;;30.55;54.17
6938;BME280;40040;42.706;23.372;2023-08-06T10:24:07;151648.97;;;30.25;56.38
6938;BME280;40040;42.706;23.372;2023-08-06T10:26:36;151601.41;;;30.06;57.42
6938;BME280;40040;42.706;23.372;2023-08-06T10:29:37;151680.25;;;30.38;58.46
6938;BME280;40040;42.706;23.372;2023-08-06T10:32:04;151647.75;;;30.25;58.24
6938;BME280;40040;42.706;23.372;2023-08-06T10:34:53;151545.16;;;29.83;58.68
6938;BME280;40040;42.706;23.372;2023-08-06T10:37:21;151506.41;;;29.68;59.50
6938;BME280;40040;42.706;23.372;2023-08-06T10:39:49;151421.38;;;29.34;60.29
6938;BME280;40040;42.706;23.372;2023-08-06T10:42:21;151281.38;;;28.77;61.81
6938;BME280;40040;42.706;23.372;2023-08-06T10:45:18;151280.09;;;28.77;64.39
6938;BME280;40040;42.706;23.372;2023-08-06T10:47:45;151287.63;;;28.80;63.37
6938;BME280;40040;42.706;23.372;2023-08-06T10:50:14;151217.66;;;28.52;62.56
6938;BME280;40040;42.706;23.372;2023-08-06T10:52:42;151231.41;;;28.57;63.14
6938;BME280;40040;42.706;23.372;2023-08-06T10:55:10;151226.41;;;28.55;63.24
6938;BME280;40040;42.706;23.372;2023-08-06T10:57:37;151221.41;;;28.53;63.21
6938;BME280;40040;42.706;23.372;2023-08-06T11:00:05;151212.63;;;28.50;62.47
6938;BME280;40040;42.706;23.372;2023-08-06T11:02:35;151161.41;;;28.29;62.55
6938;BME280;40040;42.706;23.372;2023-08-06T11:05:06;151163.88;;;28.30;61.72
6938;BME280;40040;42.706;23.372;2023-08-06T11:07:33;151141.41;;;28.21;63.03
6938;BME280;40040;42.706;23.372;2023-08-06T11:10:04;151067.72;;;27.92;62.88
6938;BME280;40040;42.706;23.372;2023-08-06T11:12:32;151153.88;;;28.26;61.87
6938;BME280;40040;42.706;23.372;2023-08-06T11:15:00;151133.91;;;28.18;63.81
6938;BME280;40040;42.706;23.372;2023-08-06T11:17:28;151081.47;;;27.97;63.33
6938;BME280;40040;42.706;23.372;2023-08-06T11:19:58;151098.94;;;28.04;64.41
6938;BME280;40040;42.706;23.372;2023-08-06T11:22:26;151125.16;;;28.15;65.30
6938;BME280;40040;42.706;23.372;2023-08-06T11:24:53;151123.91;;;28.14;66.18
6938;BME280;40040;42.706;23.372;2023-08-06T11:27:20;151060.19;;;27.89;64.89
6938;BME280;40040;42.706;23.372;2023-08-06T11:29:47;151011.47;;;27.69;66.46
6938;BME280;40040;42.706;23.372;2023-08-06T11:32:14;151027.75;;;27.76;70.99
6938;BME280;40040;42.706;23.372;2023-08-06T11:34:41;151036.50;;;27.79;73.35
6938;BME280;40040;42.706;23.372;2023-08-06T11:37:09;151033.97;;;27.78;75.18
6938;BME280;40040;42.706;23.372;2023-08-06T11:39:37;150975.31;;;27.54;74.22
6938;BME280;40040;42.706;23.372;2023-08-06T11:42:04;150986.53;;;27.59;74.49
6938;BME280;40040;42.706;23.372;2023-08-06T11:44:32;150996.53;;;27.63;72.17
6938;BME280;40040;42.706;23.372;2023-08-06T11:47:00;151012.75;;;27.69;68.71
6938;BME280;40040;42.706;23.372;2023-08-06T11:49:38;151016.47;;;27.71;69.72
6938;BME280;40040;42.706;23.372;2023-08-06T11:52:12;151097.69;;;28.04;69.61
6938;BME280;40040;42.706;23.372;2023-08-06T11:54:40;151188.84;;;28.40;65.39
6938;BME280;40040;42.706;23.372;2023-08-06T11:57:07;151166.41;;;28.31;63.77
6938;BME280;40040;42.706;23.372;2023-08-06T11:59:34;151019.00;;;27.72;66.71
6938;BME280;40040;42.706;23.372;2023-08-06T12:02:02;151016.47;;;27.71;65.89
6938;BME280;40040;42.706;23.372;2023-08-06T12:04:31;151095.19;;;28.03;65.27
6938;BME280;40040;42.706;23.372;2023-08-06T12:07:04;151196.38;;;28.43;64.81
6938;BME280;40040;42.706;23.372;2023-08-06T12:09:34;151253.88;;;28.66;62.85
6938;BME280;40040;42.706;23.372;2023-08-06T12:12:02;151287.63;;;28.80;61.51
6938;BME280;40040;42.706;23.372;2023-08-06T12:14:29;151270.16;;;28.73;60.99
6938;BME280;40040;42.706;23.372;2023-08-06T12:16:56;151317.63;;;28.92;61.15
6938;BME280;40040;42.706;23.372;2023-08-06T12:19:23;151372.63;;;29.14;57.51
6938;BME280;40040;42.706;23.372;2023-08-06T12:21:50;151381.38;;;29.18;57.38
6938;BME280;40040;42.706;23.372;2023-08-06T12:24:16;151346.34;;;29.04;57.71
6938;BME280;40040;42.706;23.372;2023-08-06T12:26:45;151353.81;;;29.07;57.10
6938;BME280;40040;42.706;23.372;2023-08-06T12:29:12;151352.59;;;29.06;56.80
6938;BME280;40040;42.706;23.372;2023-08-06T12:31:38;151316.34;;;28.92;57.60
6938;BME280;40040;42.706;23.372;2023-08-06T12:34:05;151196.38;;;28.43;57.52
6938;BME280;40040;42.706;23.372;2023-08-06T12:36:32;151121.44;;;28.13;60.27
6938;BME280;40040;42.706;23.372;2023-08-06T12:38:59;151176.38;;;28.35;59.05
6938;BME280;40040;42.706;23.372;2023-08-06T12:41:25;151203.88;;;28.46;61.05
6938;BME280;40040;42.706;23.372;2023-08-06T12:43:54;151201.34;;;28.45;61.12
6938;BME280;40040;42.706;23.372;2023-08-06T12:46:20;151227.63;;;28.56;58.94